sensor_id;sensor_type;location;lat;lon;timestamp;pressure;altitude;pressure_sealevel;temperature;humidity
80853;BME280;70270;43.434;28.338;2023-06-24T00:00:07;100187.38;;;23.03;78.99
80853;BME280;70270;43.434;28.338;2023-06-24T00:02:55;100187.69;;;22.81;79.75
80853;BME280;70270;43.434;28.338;2023-06-24T00:05:40;100171.91;;;22.92;79.13
80853;BME280;70270;43.434;28.338;2023-06-24T00:08:24;100167.25;;;22.72;79.97
80853;BME280;70270;43.434;28.338;2023-06-24T00:11:18;100164.50;;;22.82;79.72
80853;BME280;70270;43.434;28.338;2023-06-24T00:14:02;100171.66;;;22.88;79.70
80853;BME280;70270;43.434;28.338;2023-06-24T00:16:47;100182.16;;;22.86;79.28
80853;BME280;70270;43.434;28.338;2023-06-24T00:19:35;100171.38;;;22.84;79.78
80853;BME280;70270;43.434;28.338;2023-06-24T00:22:22;100085.84;;;22.29;79.70
80853;BME280;70270;43.434;28.338;2023-06-24T00:25:07;100160.34;;;22.64;79.95
80853;BME280;70270;43.434;28.338;2023-06-24T00:27:52;100178.03;;;22.68;80.16
80853;BME280;70270;43.434;28.338;2023-06-24T00:30:36;100170.88;;;22.37;81.46
80853;BME280;70270;43.434;28.338;2023-06-24T00:33:21;100096.59;;;21.85;82.11
80853;BME280;70270;43.434;28.338;2023-06-24T00:36:05;100144.38;;;22.46;81.16
80853;BME280;70270;43.434;28.338;2023-06-24T00:38:55;100094.13;;;22.29;80.47
80853;BME280;70270;43.434;28.338;2023-06-24T00:41:40;100160.91;;;22.61;80.67
80853;BME280;70270;43.434;28.338;2023-06-24T00:44:25;100155.66;;;22.60;80.52
80853;BME280;70270;43.434;28.338;2023-06-24T00:47:09;100156.81;;;22.38;80.96
80853;BME280;70270;43.434;28.338;2023-06-24T00:49:54;100171.69;;;22.58;81.18
80853;BME280;70270;43.434;28.338;2023-06-24T00:52:41;100164.22;;;22.68;80.66
80853;BME280;70270;43.434;28.338;2023-06-24T00:55:26;100129.75;;;22.20;81.36
80853;BME280;70270;43.434;28.338;2023-06-24T00:58:16;100169.22;;;22.26;82.26
80853;BME280;70270;43.434;28.338;2023-06-24T01:01:01;100172.00;;;22.26;82.33
80853;BME280;70270;43.434;28.338;2023-06-24T01:03:46;100163.97;;;22.55;81.27
80853;BME280;70270;43.434;28.338;2023-06-24T01:06:31;100151.25;;;22.59;80.90
80853;BME280;70270;43.434;28.338;2023-06-24T01:09:17;100137.19;;;22.40;80.74
80853;BME280;70270;43.434;28.338;2023-06-24T01:12:01;100156.25;;;22.36;82.07
80853;BME280;70270;43.434;28.338;2023-06-24T01:14:51;100155.13;;;22.37;81.86
80853;BME280;70270;43.434;28.338;2023-06-24T01:18:01;100134.16;;;22.01;82.76
80853;BME280;70270;43.434;28.338;2023-06-24T01:20:55;100147.41;;;22.09;83.16
80853;BME280;70270;43.434;28.338;2023-06-24T01:29:53;100137.41;;;22.79;80.05
80853;BME280;70270;43.434;28.338;2023-06-24T01:32:45;100139.63;;;22.82;80.16
80853;BME280;70270;43.434;28.338;2023-06-24T01:35:34;100132.75;;;22.74;80.65
80853;BME280;70270;43.434;28.338;2023-06-24T01:38:34;100123.03;;;22.67;80.58
80853;BME280;70270;43.434;28.338;2023-06-24T01:41:22;100139.63;;;22.72;81.09
80853;BME280;70270;43.434;28.338;2023-06-24T01:44:13;100126.66;;;22.62;81.00
80853;BME280;70270;43.434;28.338;2023-06-24T01:47:01;100019.94;;;21.92;81.55
80853;BME280;70270;43.434;28.338;2023-06-24T01:49:52;100113.16;;;22.46;81.63
80853;BME280;70270;43.434;28.338;2023-06-24T01:52:41;100112.03;;;22.52;81.17
80853;BME280;70270;43.434;28.338;2023-06-24T01:55:26;100098.25;;;22.42;81.29
80853;BME280;70270;43.434;28.338;2023-06-24T01:58:13;100115.91;;;22.46;81.83
80853;BME280;70270;43.434;28.338;2023-06-24T02:01:01;100123.91;;;22.52;81.95
80853;BME280;70270;43.434;28.338;2023-06-24T02:03:47;100112.84;;;22.52;81.61
80853;BME280;70270;43.434;28.338;2023-06-24T02:06:32;100047.22;;;22.09;81.28
80853;BME280;70270;43.434;28.338;2023-06-24T02:09:18;99944.91;;;21.39;81.46
80853;BME280;70270;43.434;28.338;2023-06-24T02:12:07;100099.38;;;22.25;81.44
80853;BME280;70270;43.434;28.338;2023-06-24T02:14:55;100113.16;;;22.35;81.70
80853;BME280;70270;43.434;28.338;2023-06-24T02:17:43;100049.16;;;22.03;81.85
80853;BME280;70270;43.434;28.338;2023-06-24T02:20:31;100094.41;;;22.32;81.14
80853;BME280;70270;43.434;28.338;2023-06-24T02:23:16;100120.03;;;22.48;81.30
80853;BME280;70270;43.434;28.338;2023-06-24T02:26:01;100121.97;;;22.48;81.35
80853;BME280;70270;43.434;28.338;2023-06-24T02:28:49;100133.53;;;22.65;81.32
80853;BME280;70270;43.434;28.338;2023-06-24T02:31:33;100137.44;;;22.54;81.70
80853;BME280;70270;43.434;28.338;2023-06-24T02:34:18;100042.25;;;21.85;82.01
80853;BME280;70270;43.434;28.338;2023-06-24T02:37:03;100140.22;;;22.54;81.92
80853;BME280;70270;43.434;28.338;2023-06-24T02:39:48;100135.78;;;22.63;81.10
80853;BME280;70270;43.434;28.338;2023-06-24T02:42:32;100152.06;;;22.59;80.78
80853;BME280;70270;43.434;28.338;2023-06-24T02:45:17;100140.44;;;22.67;80.32
80853;BME280;70270;43.434;28.338;2023-06-24T02:48:03;100144.34;;;22.61;80.55
80853;BME280;70270;43.434;28.338;2023-06-24T02:50:48;100147.34;;;22.60;80.44
80853;BME280;70270;43.434;28.338;2023-06-24T02:53:33;100070.13;;;22.09;80.50
80853;BME280;70270;43.434;28.338;2023-06-24T02:56:19;100155.09;;;22.68;79.62
80853;BME280;70270;43.434;28.338;2023-06-24T02:59:07;100100.19;;;22.36;79.47
80853;BME280;70270;43.434;28.338;2023-06-24T03:01:52;100081.69;;;22.36;78.94
80853;BME280;70270;43.434;28.338;2023-06-24T03:04:38;100071.75;;;22.40;78.08
80853;BME280;70270;43.434;28.338;2023-06-24T03:07:23;100168.88;;;22.93;78.09
80853;BME280;70270;43.434;28.338;2023-06-24T03:10:09;100163.91;;;22.90;77.97
80853;BME280;70270;43.434;28.338;2023-06-24T03:12:54;100169.44;;;22.85;77.89
80853;BME280;70270;43.434;28.338;2023-06-24T03:15:45;100165.84;;;22.84;77.86
80853;BME280;70270;43.434;28.338;2023-06-24T03:18:30;100149.00;;;22.86;77.74
80853;BME280;70270;43.434;28.338;2023-06-24T03:21:15;100171.06;;;23.01;77.48
80853;BME280;70270;43.434;28.338;2023-06-24T03:23:59;100179.88;;;23.13;77.41
80853;BME280;70270;43.434;28.338;2023-06-24T03:26:45;100180.69;;;23.19;77.39
80853;BME280;70270;43.434;28.338;2023-06-24T03:29:31;100182.53;;;23.33;76.73
80853;BME280;70270;43.434;28.338;2023-06-24T03:32:27;100196.38;;;23.33;77.14
80853;BME280;70270;43.434;28.338;2023-06-24T03:35:14;100189.19;;;23.43;76.44
80853;BME280;70270;43.434;28.338;2023-06-24T03:38:00;100185.28;;;23.49;76.19
80853;BME280;70270;43.434;28.338;2023-06-24T03:40:44;100202.41;;;23.41;76.25
80853;BME280;70270;43.434;28.338;2023-06-24T03:43:33;100176.47;;;23.31;75.89
80853;BME280;70270;43.434;28.338;2023-06-24T03:46:21;100189.75;;;23.35;75.67
80853;BME280;70270;43.434;28.338;2023-06-24T03:49:06;100115.88;;;22.76;76.94
80853;BME280;70270;43.434;28.338;2023-06-24T03:51:51;100186.75;;;23.21;77.42
80853;BME280;70270;43.434;28.338;2023-06-24T03:54:38;100198.59;;;23.31;76.93
80853;BME280;70270;43.434;28.338;2023-06-24T03:57:24;100201.91;;;23.39;76.17
80853;BME280;70270;43.434;28.338;2023-06-24T04:00:09;100217.41;;;23.35;76.80
80853;BME280;70270;43.434;28.338;2023-06-24T04:03:00;100206.59;;;23.33;76.03
80853;BME280;70270;43.434;28.338;2023-06-24T04:05:45;100117.53;;;22.72;75.99
80853;BME280;70270;43.434;28.338;2023-06-24T04:08:29;100209.91;;;23.45;75.65
80853;BME280;70270;43.434;28.338;2023-06-24T04:11:14;100203.53;;;23.50;75.87
80853;BME280;70270;43.434;28.338;2023-06-24T04:13:59;100206.19;;;23.70;75.09
80853;BME280;70270;43.434;28.338;2023-06-24T04:16:46;100212.31;;;23.67;75.10
80853;BME280;70270;43.434;28.338;2023-06-24T04:19:31;100154.66;;;23.25;74.60
80853;BME280;70270;43.434;28.338;2023-06-24T04:22:15;100222.22;;;23.73;74.81
80853;BME280;70270;43.434;28.338;2023-06-24T04:25:01;100139.97;;;23.35;74.69
80853;BME280;70270;43.434;28.338;2023-06-24T04:27:46;100128.09;;;23.29;75.00
80853;BME280;70270;43.434;28.338;2023-06-24T04:30:31;100127.00;;;23.25;75.17
80853;BME280;70270;43.434;28.338;2023-06-24T04:33:15;100231.38;;;24.12;74.64
80853;BME280;70270;43.434;28.338;2023-06-24T04:36:00;100233.56;;;24.20;73.61
80853;BME280;70270;43.434;28.338;2023-06-24T04:38:47;100255.59;;;24.36;73.00
80853;BME280;70270;43.434;28.338;2023-06-24T04:41:32;100257.84;;;24.34;72.86
80853;BME280;70270;43.434;28.338;2023-06-24T04:44:17;100231.81;;;24.35;72.32
80853;BME280;70270;43.434;28.338;2023-06-24T04:47:01;100202.00;;;24.21;72.22
80853;BME280;70270;43.434;28.338;2023-06-24T04:49:45;100197.59;;;24.15;72.08
80853;BME280;70270;43.434;28.338;2023-06-24T04:52:30;100233.38;;;24.46;71.80
80853;BME280;70270;43.434;28.338;2023-06-24T04:55:14;100263.16;;;24.64;71.25
80853;BME280;70270;43.434;28.338;2023-06-24T04:58:00;100273.84;;;24.76;71.02
80853;BME280;70270;43.434;28.338;2023-06-24T05:00:44;100269.13;;;24.76;71.45
80853;BME280;70270;43.434;28.338;2023-06-24T05:03:32;100230.56;;;24.51;70.90
80853;BME280;70270;43.434;28.338;2023-06-24T05:06:17;100272.00;;;24.66;71.14
80853;BME280;70270;43.434;28.338;2023-06-24T05:09:01;100268.16;;;24.62;71.37
80853;BME280;70270;43.434;28.338;2023-06-24T05:11:46;100292.88;;;24.53;71.21
80853;BME280;70270;43.434;28.338;2023-06-24T05:14:30;100250.22;;;24.54;71.11
80853;BME280;70270;43.434;28.338;2023-06-24T05:17:15;100274.84;;;24.56;71.73
80853;BME280;70270;43.434;28.338;2023-06-24T05:19:59;100269.31;;;24.12;71.87
80853;BME280;70270;43.434;28.338;2023-06-24T05:22:44;100255.53;;;24.02;72.28
80853;BME280;70270;43.434;28.338;2023-06-24T05:25:28;100268.22;;;24.18;72.54
80853;BME280;70270;43.434;28.338;2023-06-24T05:28:13;100160.00;;;23.65;71.98
80853;BME280;70270;43.434;28.338;2023-06-24T05:30:57;100290.41;;;24.52;71.78
80853;BME280;70270;43.434;28.338;2023-06-24T05:33:42;100265.81;;;23.96;72.70
80853;BME280;70270;43.434;28.338;2023-06-24T05:36:26;100243.16;;;23.89;73.22
80853;BME280;70270;43.434;28.338;2023-06-24T05:39:14;100274.22;;;23.81;73.68
80853;BME280;70270;43.434;28.338;2023-06-24T05:41:59;100272.00;;;23.83;73.39
80853;BME280;70270;43.434;28.338;2023-06-24T05:44:43;100256.06;;;24.04;72.10
80853;BME280;70270;43.434;28.338;2023-06-24T05:47:28;100259.06;;;24.17;71.49
80853;BME280;70270;43.434;28.338;2023-06-24T05:50:12;100251.75;;;24.32;70.62
80853;BME280;70270;43.434;28.338;2023-06-24T05:52:58;100249.53;;;24.34;67.72
80853;BME280;70270;43.434;28.338;2023-06-24T05:55:42;100208.38;;;24.22;69.22
80853;BME280;70270;43.434;28.338;2023-06-24T05:58:27;100257.84;;;24.34;70.69
80853;BME280;70270;43.434;28.338;2023-06-24T06:01:12;100259.78;;;23.84;72.83
80853;BME280;70270;43.434;28.338;2023-06-24T06:03:57;100244.34;;;23.78;72.77
80853;BME280;70270;43.434;28.338;2023-06-24T06:06:41;100234.66;;;23.75;73.11
80853;BME280;70270;43.434;28.338;2023-06-24T06:09:26;100178.53;;;23.70;71.89
80853;BME280;70270;43.434;28.338;2023-06-24T06:12:11;100198.53;;;23.96;71.04
80853;BME280;70270;43.434;28.338;2023-06-24T06:14:56;100244.16;;;24.03;72.00
80853;BME280;70270;43.434;28.338;2023-06-24T06:17:40;100244.25;;;23.93;72.76
80853;BME280;70270;43.434;28.338;2023-06-24T06:20:29;100252.97;;;24.15;71.15
80853;BME280;70270;43.434;28.338;2023-06-24T06:23:15;100262.44;;;24.04;69.23
80853;BME280;70270;43.434;28.338;2023-06-24T06:25:59;100230.88;;;24.05;71.03
80853;BME280;70270;43.434;28.338;2023-06-24T06:28:44;100253.41;;;23.89;70.10
80853;BME280;70270;43.434;28.338;2023-06-24T06:31:28;100246.50;;;23.86;73.08
80853;BME280;70270;43.434;28.338;2023-06-24T06:34:13;100245.59;;;23.96;71.34
80853;BME280;70270;43.434;28.338;2023-06-24T06:36:58;100262.47;;;23.99;69.87
80853;BME280;70270;43.434;28.338;2023-06-24T06:39:43;100151.50;;;23.52;70.07
80853;BME280;70270;43.434;28.338;2023-06-24T06:42:29;100252.91;;;24.31;70.28
80853;BME280;70270;43.434;28.338;2023-06-24T06:45:14;100251.03;;;24.16;68.30
80853;BME280;70270;43.434;28.338;2023-06-24T06:47:58;100251.88;;;24.16;64.87
80853;BME280;70270;43.434;28.338;2023-06-24T06:50:44;100242.50;;;24.51;67.37
80853;BME280;70270;43.434;28.338;2023-06-24T06:53:29;100237.72;;;24.57;65.09
80853;BME280;70270;43.434;28.338;2023-06-24T06:56:26;100226.47;;;24.72;67.83
80853;BME280;70270;43.434;28.338;2023-06-24T06:59:11;100227.25;;;24.49;64.73
80853;BME280;70270;43.434;28.338;2023-06-24T07:01:55;100216.00;;;24.69;67.43
80853;BME280;70270;43.434;28.338;2023-06-24T07:04:40;100185.31;;;24.89;67.61
80853;BME280;70270;43.434;28.338;2023-06-24T07:07:26;100215.66;;;25.04;65.95
80853;BME280;70270;43.434;28.338;2023-06-24T07:10:11;100226.94;;;25.37;65.12
80853;BME280;70270;43.434;28.338;2023-06-24T07:12:55;100211.41;;;25.36;65.59
80853;BME280;70270;43.434;28.338;2023-06-24T07:15:42;100216.72;;;25.32;66.00
80853;BME280;70270;43.434;28.338;2023-06-24T07:18:26;100235.50;;;24.59;68.06
80853;BME280;70270;43.434;28.338;2023-06-24T07:21:14;100225.31;;;24.49;66.51
80853;BME280;70270;43.434;28.338;2023-06-24T07:23:59;100234.72;;;24.87;67.48
80853;BME280;70270;43.434;28.338;2023-06-24T07:26:43;100214.84;;;24.75;66.64
80853;BME280;70270;43.434;28.338;2023-06-24T07:29:28;100239.69;;;25.14;65.71
80853;BME280;70270;43.434;28.338;2023-06-24T07:32:15;100143.16;;;24.63;66.10
80853;BME280;70270;43.434;28.338;2023-06-24T07:35:05;100241.59;;;25.19;65.18
80853;BME280;70270;43.434;28.338;2023-06-24T07:37:52;100229.72;;;25.13;65.02
80853;BME280;70270;43.434;28.338;2023-06-24T07:40:38;100230.50;;;24.90;65.41
80853;BME280;70270;43.434;28.338;2023-06-24T07:43:23;100145.34;;;24.38;65.46
80853;BME280;70270;43.434;28.338;2023-06-24T07:46:08;100153.00;;;24.51;66.97
80853;BME280;70270;43.434;28.338;2023-06-24T07:48:52;100247.88;;;25.00;66.44
80853;BME280;70270;43.434;28.338;2023-06-24T07:51:36;100243.50;;;24.94;66.52
80853;BME280;70270;43.434;28.338;2023-06-24T07:54:22;100246.41;;;24.79;65.67
80853;BME280;70270;43.434;28.338;2023-06-24T07:57:06;100257.66;;;24.59;67.98
80853;BME280;70270;43.434;28.338;2023-06-24T07:59:51;100260.84;;;24.42;67.96
80853;BME280;70270;43.434;28.338;2023-06-24T08:02:36;100228.13;;;24.44;66.84
80853;BME280;70270;43.434;28.338;2023-06-24T08:05:21;100247.44;;;24.88;66.26
80853;BME280;70270;43.434;28.338;2023-06-24T08:08:06;100219.84;;;24.73;65.06
80853;BME280;70270;43.434;28.338;2023-06-24T08:10:50;100243.94;;;25.06;65.68
80853;BME280;70270;43.434;28.338;2023-06-24T08:13:34;100253.19;;;25.44;62.25
80853;BME280;70270;43.434;28.338;2023-06-24T08:16:19;100260.19;;;25.42;61.88
80853;BME280;70270;43.434;28.338;2023-06-24T08:19:04;100250.13;;;25.46;60.60
80853;BME280;70270;43.434;28.338;2023-06-24T08:21:49;100236.94;;;25.61;60.24
80853;BME280;70270;43.434;28.338;2023-06-24T08:24:33;100164.88;;;25.28;60.13
80853;BME280;70270;43.434;28.338;2023-06-24T08:27:17;100253.63;;;25.33;59.80
80853;BME280;70270;43.434;28.338;2023-06-24T08:30:03;100170.31;;;24.33;62.23
80853;BME280;70270;43.434;28.338;2023-06-24T08:32:48;100172.72;;;24.10;57.69
80853;BME280;70270;43.434;28.338;2023-06-24T08:35:32;100253.53;;;24.90;61.89
80853;BME280;70270;43.434;28.338;2023-06-24T08:38:16;100242.09;;;25.21;60.68
80853;BME280;70270;43.434;28.338;2023-06-24T08:41:01;100249.78;;;25.29;60.03
80853;BME280;70270;43.434;28.338;2023-06-24T08:43:46;100159.72;;;25.21;59.76
80853;BME280;70270;43.434;28.338;2023-06-24T08:46:30;100238.97;;;25.75;56.64
80853;BME280;70270;43.434;28.338;2023-06-24T08:52:12;100248.88;;;25.81;57.82
80853;BME280;70270;43.434;28.338;2023-06-24T08:55:01;100252.28;;;25.54;57.31
80853;BME280;70270;43.434;28.338;2023-06-24T08:57:46;100195.53;;;25.41;57.22
80853;BME280;70270;43.434;28.338;2023-06-24T09:00:30;100245.97;;;25.91;55.05
80853;BME280;70270;43.434;28.338;2023-06-24T09:03:14;100186.75;;;25.34;57.29
80853;BME280;70270;43.434;28.338;2023-06-24T09:05:59;100238.94;;;25.56;58.78
80853;BME280;70270;43.434;28.338;2023-06-24T09:08:54;100253.84;;;26.02;56.25
80853;BME280;70270;43.434;28.338;2023-06-24T09:11:38;100249.72;;;25.81;57.76
80853;BME280;70270;43.434;28.338;2023-06-24T09:14:29;100232.66;;;25.69;50.94
80853;BME280;70270;43.434;28.338;2023-06-24T09:17:15;100252.38;;;25.44;57.58
80853;BME280;70270;43.434;28.338;2023-06-24T09:20:04;100254.47;;;25.99;58.34
80853;BME280;70270;43.434;28.338;2023-06-24T09:22:51;100271.00;;;25.67;57.61
80853;BME280;70270;43.434;28.338;2023-06-24T09:25:36;100252.34;;;25.91;57.47
80853;BME280;70270;43.434;28.338;2023-06-24T09:28:20;100260.19;;;26.27;56.24
80853;BME280;70270;43.434;28.338;2023-06-24T09:31:09;100263.09;;;26.17;56.22
80853;BME280;70270;43.434;28.338;2023-06-24T09:33:57;100252.09;;;25.69;56.19
80853;BME280;70270;43.434;28.338;2023-06-24T09:36:44;100267.69;;;25.65;56.01
80853;BME280;70270;43.434;28.338;2023-06-24T09:39:35;100251.72;;;25.52;52.18
80853;BME280;70270;43.434;28.338;2023-06-24T09:42:21;100277.75;;;26.03;52.62
80853;BME280;70270;43.434;28.338;2023-06-24T09:45:07;100265.84;;;26.17;56.50
80853;BME280;70270;43.434;28.338;2023-06-24T09:47:53;100262.53;;;26.20;54.43
80853;BME280;70270;43.434;28.338;2023-06-24T09:50:38;100256.84;;;26.62;52.39
80853;BME280;70270;43.434;28.338;2023-06-24T09:53:23;100264.53;;;26.33;53.46
80853;BME280;70270;43.434;28.338;2023-06-24T09:56:08;100213.31;;;25.83;57.08
80853;BME280;70270;43.434;28.338;2023-06-24T09:58:54;100254.41;;;26.42;57.41
80853;BME280;70270;43.434;28.338;2023-06-24T10:01:43;100239.19;;;25.78;58.93
80853;BME280;70270;43.434;28.338;2023-06-24T10:04:29;100231.31;;;25.85;59.66
80853;BME280;70270;43.434;28.338;2023-06-24T10:07:14;100250.53;;;26.00;58.49
80853;BME280;70270;43.434;28.338;2023-06-24T10:10:02;100238.97;;;25.51;61.76
80853;BME280;70270;43.434;28.338;2023-06-24T10:12:47;100251.09;;;25.60;60.63
80853;BME280;70270;43.434;28.338;2023-06-24T10:15:32;100242.84;;;25.31;58.78
80853;BME280;70270;43.434;28.338;2023-06-24T10:18:34;100240.78;;;24.89;62.83
80853;BME280;70270;43.434;28.338;2023-06-24T10:21:19;100234.53;;;25.02;62.85
80853;BME280;70270;43.434;28.338;2023-06-24T10:24:04;100238.66;;;25.05;62.82
80853;BME280;70270;43.434;28.338;2023-06-24T10:26:48;100128.75;;;24.38;61.89
80853;BME280;70270;43.434;28.338;2023-06-24T10:29:39;100219.66;;;24.59;63.12
80853;BME280;70270;43.434;28.338;2023-06-24T10:32:24;100078.66;;;24.00;62.39
80853;BME280;70270;43.434;28.338;2023-06-24T10:35:22;100228.00;;;25.17;63.33
80853;BME280;70270;43.434;28.338;2023-06-24T10:38:10;100224.47;;;25.11;63.79
80853;BME280;70270;43.434;28.338;2023-06-24T10:40:54;100226.50;;;25.48;63.41
80853;BME280;70270;43.434;28.338;2023-06-24T10:43:39;100217.94;;;25.45;63.11
80853;BME280;70270;43.434;28.338;2023-06-24T10:46:26;100235.41;;;24.98;61.73
80853;BME280;70270;43.434;28.338;2023-06-24T10:49:11;100226.09;;;24.89;64.87
80853;BME280;70270;43.434;28.338;2023-06-24T10:51:59;100239.69;;;24.85;62.92
80853;BME280;70270;43.434;28.338;2023-06-24T10:54:43;100223.09;;;24.80;61.85
80853;BME280;70270;43.434;28.338;2023-06-24T10:57:28;100212.22;;;24.89;63.76
80853;BME280;70270;43.434;28.338;2023-06-24T11:00:13;100150.25;;;24.75;61.63
80853;BME280;70270;43.434;28.338;2023-06-24T11:03:08;100207.50;;;25.37;60.84
80853;BME280;70270;43.434;28.338;2023-06-24T11:05:53;100224.16;;;25.37;61.24
80853;BME280;70270;43.434;28.338;2023-06-24T11:08:44;100231.72;;;25.31;58.72
80853;BME280;70270;43.434;28.338;2023-06-24T11:11:34;100224.09;;;24.94;61.00
80853;BME280;70270;43.434;28.338;2023-06-24T11:14:22;100223.47;;;25.02;60.52
80853;BME280;70270;43.434;28.338;2023-06-24T11:17:06;100231.34;;;24.90;60.72
80853;BME280;70270;43.434;28.338;2023-06-24T11:19:55;100223.47;;;25.02;59.91
80853;BME280;70270;43.434;28.338;2023-06-24T11:22:41;100186.75;;;24.87;61.55
80853;BME280;70270;43.434;28.338;2023-06-24T11:25:26;100211.16;;;25.08;62.14
80853;BME280;70270;43.434;28.338;2023-06-24T11:28:19;100221.75;;;25.06;61.05
80853;BME280;70270;43.434;28.338;2023-06-24T11:31:07;100137.78;;;24.72;59.26
80853;BME280;70270;43.434;28.338;2023-06-24T11:33:54;100120.44;;;24.90;59.86
80853;BME280;70270;43.434;28.338;2023-06-24T11:36:38;100206.00;;;25.26;60.20
80853;BME280;70270;43.434;28.338;2023-06-24T11:39:25;100146.81;;;24.59;60.37
80853;BME280;70270;43.434;28.338;2023-06-24T11:42:10;100207.88;;;25.06;59.52
80853;BME280;70270;43.434;28.338;2023-06-24T11:45:02;100195.72;;;25.26;58.04
80853;BME280;70270;43.434;28.338;2023-06-24T11:47:47;100182.34;;;25.52;60.58
80853;BME280;70270;43.434;28.338;2023-06-24T11:50:32;100187.50;;;25.82;59.14
80853;BME280;70270;43.434;28.338;2023-06-24T11:53:17;100191.22;;;25.54;59.41
80853;BME280;70270;43.434;28.338;2023-06-24T11:56:01;100168.75;;;25.74;58.44
80853;BME280;70270;43.434;28.338;2023-06-24T11:58:48;100184.88;;;26.09;59.11
80853;BME280;70270;43.434;28.338;2023-06-24T12:01:35;100156.44;;;25.99;58.29
80853;BME280;70270;43.434;28.338;2023-06-24T12:04:30;100178.72;;;25.94;58.77
80853;BME280;70270;43.434;28.338;2023-06-24T12:07:15;100141.75;;;25.80;59.16
80853;BME280;70270;43.434;28.338;2023-06-24T12:09:59;100181.72;;;26.35;58.21
80853;BME280;70270;43.434;28.338;2023-06-24T12:12:44;100071.09;;;25.86;57.22
80853;BME280;70270;43.434;28.338;2023-06-24T12:15:29;100162.53;;;26.52;56.14
80853;BME280;70270;43.434;28.338;2023-06-24T12:18:13;100172.34;;;26.44;56.77
80853;BME280;70270;43.434;28.338;2023-06-24T12:20:58;100165.13;;;26.30;55.70
80853;BME280;70270;43.434;28.338;2023-06-24T12:23:43;100170.13;;;26.60;56.99
80853;BME280;70270;43.434;28.338;2023-06-24T12:26:27;100152.59;;;25.95;56.35
80853;BME280;70270;43.434;28.338;2023-06-24T12:29:12;100004.16;;;25.17;56.03
80853;BME280;70270;43.434;28.338;2023-06-24T12:31:56;100104.09;;;26.06;58.17
80853;BME280;70270;43.434;28.338;2023-06-24T12:34:41;100123.03;;;26.36;58.08
80853;BME280;70270;43.434;28.338;2023-06-24T12:37:29;100170.69;;;25.92;58.61
80853;BME280;70270;43.434;28.338;2023-06-24T12:40:14;100146.72;;;26.15;58.67
80853;BME280;70270;43.434;28.338;2023-06-24T12:42:58;100176.22;;;25.92;57.76
80853;BME280;70270;43.434;28.338;2023-06-24T12:45:44;100143.22;;;25.72;59.33
80853;BME280;70270;43.434;28.338;2023-06-24T12:48:28;100155.59;;;25.98;59.62
80853;BME280;70270;43.434;28.338;2023-06-24T12:51:12;100137.03;;;26.13;58.28
80853;BME280;70270;43.434;28.338;2023-06-24T12:53:57;100148.69;;;26.47;56.50
80853;BME280;70270;43.434;28.338;2023-06-24T12:56:41;100163.50;;;25.91;58.15
80853;BME280;70270;43.434;28.338;2023-06-24T12:59:26;100137.97;;;25.89;58.93
80853;BME280;70270;43.434;28.338;2023-06-24T13:02:11;100158.06;;;26.19;56.83
80853;BME280;70270;43.434;28.338;2023-06-24T13:04:55;100140.94;;;26.12;57.78
80853;BME280;70270;43.434;28.338;2023-06-24T13:07:40;100130.66;;;26.90;56.22
80853;BME280;70270;43.434;28.338;2023-06-24T13:10:24;100137.44;;;26.84;55.19
80853;BME280;70270;43.434;28.338;2023-06-24T13:13:09;100045.56;;;26.76;54.24
80853;BME280;70270;43.434;28.338;2023-06-24T13:15:53;100026.53;;;26.56;53.61
80853;BME280;70270;43.434;28.338;2023-06-24T13:18:38;100128.69;;;27.05;53.36
80853;BME280;70270;43.434;28.338;2023-06-24T13:21:22;100107.94;;;26.42;56.48
80853;BME280;70270;43.434;28.338;2023-06-24T13:24:07;100093.03;;;26.52;54.82
80853;BME280;70270;43.434;28.338;2023-06-24T13:26:52;100032.44;;;25.76;56.14
80853;BME280;70270;43.434;28.338;2023-06-24T13:29:36;100027.31;;;25.45;56.75
80853;BME280;70270;43.434;28.338;2023-06-24T13:32:21;100100.91;;;25.80;56.44
80853;BME280;70270;43.434;28.338;2023-06-24T13:35:06;100097.31;;;26.12;54.27
80853;BME280;70270;43.434;28.338;2023-06-24T13:37:50;100099.25;;;26.30;54.65
80853;BME280;70270;43.434;28.338;2023-06-24T13:40:35;100092.59;;;26.13;54.96
80853;BME280;70270;43.434;28.338;2023-06-24T13:43:19;100100.34;;;26.16;53.99
80853;BME280;70270;43.434;28.338;2023-06-24T13:46:04;100096.66;;;26.01;55.08
80853;BME280;70270;43.434;28.338;2023-06-24T13:48:49;100089.78;;;25.80;55.93
80853;BME280;70270;43.434;28.338;2023-06-24T13:51:34;100082.28;;;25.99;56.67
80853;BME280;70270;43.434;28.338;2023-06-24T13:54:18;100074.63;;;25.91;56.78
80853;BME280;70270;43.434;28.338;2023-06-24T13:57:02;100096.34;;;26.22;57.52
80853;BME280;70270;43.434;28.338;2023-06-24T13:59:47;100091.66;;;26.36;56.10
80853;BME280;70270;43.434;28.338;2023-06-24T14:02:31;100080.75;;;26.07;57.00
80853;BME280;70270;43.434;28.338;2023-06-24T14:05:16;100059.78;;;26.15;57.92
80853;BME280;70270;43.434;28.338;2023-06-24T14:08:00;100029.06;;;26.25;57.91
80853;BME280;70270;43.434;28.338;2023-06-24T14:10:45;100022.22;;;26.03;56.14
80853;BME280;70270;43.434;28.338;2023-06-24T14:13:32;100071.88;;;26.05;58.01
80853;BME280;70270;43.434;28.338;2023-06-24T14:16:17;100074.38;;;26.06;57.29
80853;BME280;70270;43.434;28.338;2023-06-24T14:19:03;100061.59;;;26.38;57.71
80853;BME280;70270;43.434;28.338;2023-06-24T14:21:48;100070.91;;;26.74;56.52
80853;BME280;70270;43.434;28.338;2023-06-24T14:24:33;99895.41;;;25.53;58.13